Easton, New Hampshire
Current Conditions -  °F | °C
As of 1:15 PM on Monday 26 Jan 2015 (Local Time) from K1P1 Reporting Station
Clear Clear  
Wind Chill: -7°   Ceiling: Unl
Heat Index: -7°   Visibility: 10mi
Dew Point: -18°   Wind: 0mph
Humidity: 44%   Direction: NA
Pressure: 30.09"   Gusts: NA
Location:  44.1173°N, 71.8999°W
Report Text: K1P1 261815Z AUTO 00000KT 10SM CLR M07/M18 A3009 RMK AO2 T10731177
Loading
Personal Weather Stations






























Interactive Weather Map New forecast layout! Learn more

10-Day Weather Forecast

Advertisements
Track Severe Weather on mobile